ラロトンガ の空港の天気 - METARとTAF

ラロトンガ国際空港 ( NCRG / RAR ) - クック諸島 アバルア (ラロトンガ島)
飛行場実況気象(Metar)
観測時間07/16 23:00 CKT (07/17 09:00 UTC)
風向・風速東北東 6m/s
視程10km以上
天気現象
少しの雲 雲底高度 550m
全天の4割程度の雲 雲底高度 3050m
気温24℃
湿度74%
気圧1016hPa
METARNCRG 170900Z 07012KT 9999 FEW018 SCT100 24/19 Q1016
過去の天気等 Google飛行場航空写真 Wunderground天気予報

過去48時間のMETAR

飛行場予報(TAF)
発表時間: 7/16 19:07 CKT (7/17 05:07 UTC)
予報対象時間: 16日20時 CKT ~ 17日20時 CKT
風向・風速東 5m/s
視程10km以上
全天の4割程度の雲 雲底高度 520m
全天の8割程度の雲 雲底高度 3050m
16日20時 CKT ~ 17日2時 CKT に 確率 30% で一時的に
視程7000m
天気現象しゅう雨
全天の8割程度の雲 雲底高度 460m
TAF NCRG 170507Z 1706/1806 09010KT 9999 SCT017 BKN100
PROB30 TEMPO 1706/1712 7000 SHRA BKN015